Weather at Waldron Airstrip

Public forecast

Using degrees Fahrenheit for public forecast. Weather courtesy of forecast.io.

Closest aviation weather report (METAR) to Waldron Airstrip

Closest report is Orcas Island Airport, 4.3 nm (7.9 km) E.

2024/05/26 22:15 (retrieved 17 minutes ago)

KORS 262215Z AUTO 18010KT 10SM -RA OVC060 13/10 A3011 RMK AO2

Closest aviation forecast (TAF) to Waldron Airstrip

Closest forecast is Victoria International Airport, 16.7 nm (30.9 km) WSW.

2024/05/26 18:42 (retrieved 4 hours ago)

TAF CYYJ 261740Z 2618/2718 14010KT P6SM SCT015 OVC040 TEMPO 2618/2718 5SM -SHRA BR BKN015 OVC040 BECMG 2702/2704 VRB03KT RMK NXT FCST BY 270000Z